sensor_id;sensor_type;location;lat;lon;timestamp;pressure;altitude;pressure_sealevel;temperature;humidity
37238;BME280;23129;49.662;8.448;2023-05-23T00:00:39;100506.66;;;19.41;88.77
37238;BME280;23129;49.662;8.448;2023-05-23T00:03:08;100502.50;;;19.36;89.04
37238;BME280;23129;49.662;8.448;2023-05-23T00:05:37;100497.44;;;19.32;88.94
37238;BME280;23129;49.662;8.448;2023-05-23T00:08:06;100503.81;;;19.29;89.16
37238;BME280;23129;49.662;8.448;2023-05-23T00:10:34;100492.53;;;19.26;89.39
37238;BME280;23129;49.662;8.448;2023-05-23T00:13:02;100502.50;;;19.22;89.24
37238;BME280;23129;49.662;8.448;2023-05-23T00:15:32;100499.09;;;19.20;89.50
37238;BME280;23129;49.662;8.448;2023-05-23T00:18:01;100492.38;;;19.14;89.66
37238;BME280;23129;49.662;8.448;2023-05-23T00:20:29;100497.84;;;19.11;89.50
37238;BME280;23129;49.662;8.448;2023-05-23T00:23:00;100495.38;;;19.08;89.57
37238;BME280;23129;49.662;8.448;2023-05-23T00:25:29;100496.47;;;19.06;89.65
37238;BME280;23129;49.662;8.448;2023-05-23T00:28:00;100511.53;;;19.05;89.76
37238;BME280;23129;49.662;8.448;2023-05-23T00:30:30;100513.44;;;19.03;89.90
37238;BME280;23129;49.662;8.448;2023-05-23T00:33:00;100511.72;;;19.02;89.81
37238;BME280;23129;49.662;8.448;2023-05-23T00:35:28;100497.69;;;19.00;89.77
37238;BME280;23129;49.662;8.448;2023-05-23T00:37:57;100499.56;;;18.98;89.92
37238;BME280;23129;49.662;8.448;2023-05-23T00:40:25;100496.16;;;18.96;90.05
37238;BME280;23129;49.662;8.448;2023-05-23T00:42:54;100496.34;;;18.93;90.10
37238;BME280;23129;49.662;8.448;2023-05-23T00:45:23;100498.06;;;18.94;90.21
37238;BME280;23129;49.662;8.448;2023-05-23T00:47:51;100498.25;;;18.91;90.41
37238;BME280;23129;49.662;8.448;2023-05-23T00:50:22;100498.25;;;18.91;90.40
37238;BME280;23129;49.662;8.448;2023-05-23T00:52:50;100494.84;;;18.89;90.14
37238;BME280;23129;49.662;8.448;2023-05-23T00:55:19;100499.50;;;18.85;90.26
37238;BME280;23129;49.662;8.448;2023-05-23T00:57:48;100505.66;;;18.86;90.30
37238;BME280;23129;49.662;8.448;2023-05-23T01:00:17;100503.97;;;18.85;90.32
37238;BME280;23129;49.662;8.448;2023-05-23T01:02:46;100508.50;;;18.83;90.75
37238;BME280;23129;49.662;8.448;2023-05-23T01:05:18;100507.72;;;18.81;90.61
37238;BME280;23129;49.662;8.448;2023-05-23T01:07:50;100507.72;;;18.81;90.69
37238;BME280;23129;49.662;8.448;2023-05-23T01:10:23;100506.03;;;18.80;90.89
37238;BME280;23129;49.662;8.448;2023-05-23T01:13:04;100511.34;;;18.80;90.64
37238;BME280;23129;49.662;8.448;2023-05-23T01:15:41;100515.16;;;18.76;90.81
37238;BME280;23129;49.662;8.448;2023-05-23T01:18:15;100515.31;;;18.73;91.19
37238;BME280;23129;49.662;8.448;2023-05-23T01:20:51;100509.22;;;18.70;91.00
37238;BME280;23129;49.662;8.448;2023-05-23T01:26:32;100510.16;;;18.69;91.07
37238;BME280;23129;49.662;8.448;2023-05-23T01:29:10;100516.59;;;18.65;91.41
37238;BME280;23129;49.662;8.448;2023-05-23T01:31:43;100515.09;;;18.61;91.31
37238;BME280;23129;49.662;8.448;2023-05-23T01:34:13;100522.28;;;18.59;91.25
37238;BME280;23129;49.662;8.448;2023-05-23T01:36:43;100523.25;;;18.58;91.57
37238;BME280;23129;49.662;8.448;2023-05-23T01:39:12;100526.84;;;18.57;91.64
37238;BME280;23129;49.662;8.448;2023-05-23T01:41:41;100526.84;;;18.57;91.41
37238;BME280;23129;49.662;8.448;2023-05-23T01:44:11;100531.28;;;18.57;91.64
37238;BME280;23129;49.662;8.448;2023-05-23T01:46:40;100528.75;;;18.55;91.46
37238;BME280;23129;49.662;8.448;2023-05-23T01:49:12;100532.31;;;18.54;91.58
37238;BME280;23129;49.662;8.448;2023-05-23T01:51:41;100530.63;;;18.53;91.80
37238;BME280;23129;49.662;8.448;2023-05-23T01:54:11;100528.94;;;18.52;91.88
37238;BME280;23129;49.662;8.448;2023-05-23T01:56:43;100531.66;;;18.51;91.98
37238;BME280;23129;49.662;8.448;2023-05-23T01:59:13;100532.50;;;18.51;91.59
37238;BME280;23129;49.662;8.448;2023-05-23T02:01:42;100534.59;;;18.46;91.93
37238;BME280;23129;49.662;8.448;2023-05-23T02:04:12;100534.59;;;18.46;91.94
37238;BME280;23129;49.662;8.448;2023-05-23T02:06:42;100532.03;;;18.44;91.94
37238;BME280;23129;49.662;8.448;2023-05-23T02:09:12;100526.81;;;18.43;92.03
37238;BME280;23129;49.662;8.448;2023-05-23T02:11:41;100527.75;;;18.42;92.01
37238;BME280;23129;49.662;8.448;2023-05-23T02:14:10;100526.03;;;18.41;92.09
37238;BME280;23129;49.662;8.448;2023-05-23T02:16:40;100527.94;;;18.39;91.85
37238;BME280;23129;49.662;8.448;2023-05-23T02:19:08;100545.78;;;18.37;92.20
37238;BME280;23129;49.662;8.448;2023-05-23T02:21:38;100550.22;;;18.36;91.92
37238;BME280;23129;49.662;8.448;2023-05-23T02:24:07;100549.53;;;18.33;92.00
37238;BME280;23129;49.662;8.448;2023-05-23T02:26:36;100557.50;;;18.33;92.19
37238;BME280;23129;49.662;8.448;2023-05-23T02:29:04;100558.63;;;18.29;92.16
37238;BME280;23129;49.662;8.448;2023-05-23T02:31:33;100563.94;;;18.29;92.18
37238;BME280;23129;49.662;8.448;2023-05-23T02:34:03;100567.53;;;18.28;92.09
37238;BME280;23129;49.662;8.448;2023-05-23T02:36:32;100574.75;;;18.25;92.36
37238;BME280;23129;49.662;8.448;2023-05-23T02:39:03;100580.97;;;18.24;92.13
37238;BME280;23129;49.662;8.448;2023-05-23T02:41:32;100580.13;;;18.24;92.45
37238;BME280;23129;49.662;8.448;2023-05-23T02:44:01;100580.13;;;18.24;92.29
37238;BME280;23129;49.662;8.448;2023-05-23T02:46:30;100595.22;;;18.23;92.32
37238;BME280;23129;49.662;8.448;2023-05-23T02:48:59;100590.84;;;18.22;92.66
37238;BME280;23129;49.662;8.448;2023-05-23T02:51:28;100594.44;;;18.21;92.46
37238;BME280;23129;49.662;8.448;2023-05-23T02:53:58;100600.69;;;18.20;92.69
37238;BME280;23129;49.662;8.448;2023-05-23T02:56:27;100606.97;;;18.19;92.63
37238;BME280;23129;49.662;8.448;2023-05-23T02:58:55;100599.94;;;18.18;92.79
37238;BME280;23129;49.662;8.448;2023-05-23T03:01:24;100603.53;;;18.17;93.08
37238;BME280;23129;49.662;8.448;2023-05-23T03:03:52;100594.78;;;18.15;92.72
37238;BME280;23129;49.662;8.448;2023-05-23T03:06:21;100586.94;;;18.14;92.85
37238;BME280;23129;49.662;8.448;2023-05-23T03:08:51;100594.03;;;18.13;93.02
37238;BME280;23129;49.662;8.448;2023-05-23T03:11:20;100595.13;;;18.09;93.32
37238;BME280;23129;49.662;8.448;2023-05-23T03:13:49;100595.31;;;18.06;93.01
37238;BME280;23129;49.662;8.448;2023-05-23T03:16:17;100609.53;;;18.05;93.12
37238;BME280;23129;49.662;8.448;2023-05-23T03:18:46;100615.88;;;18.02;93.38
37238;BME280;23129;49.662;8.448;2023-05-23T03:21:15;100611.59;;;18.00;93.13
37238;BME280;23129;49.662;8.448;2023-05-23T03:23:43;100610.75;;;17.99;93.36
37238;BME280;23129;49.662;8.448;2023-05-23T03:26:13;100611.59;;;18.00;93.31
37238;BME280;23129;49.662;8.448;2023-05-23T03:28:41;100616.91;;;18.00;93.13
37238;BME280;23129;49.662;8.448;2023-05-23T03:31:10;100618.63;;;18.01;93.16
37238;BME280;23129;49.662;8.448;2023-05-23T03:33:38;100619.47;;;18.01;93.23
37238;BME280;23129;49.662;8.448;2023-05-23T03:36:07;100627.50;;;18.00;93.14
37238;BME280;23129;49.662;8.448;2023-05-23T03:38:35;100622.22;;;18.00;92.95
37238;BME280;23129;49.662;8.448;2023-05-23T03:41:04;100623.22;;;17.97;93.00
37238;BME280;23129;49.662;8.448;2023-05-23T03:43:33;100625.97;;;17.96;93.15
37238;BME280;23129;49.662;8.448;2023-05-23T03:46:02;100635.91;;;17.92;93.11
37238;BME280;23129;49.662;8.448;2023-05-23T03:48:30;100626.31;;;17.90;93.21
37238;BME280;23129;49.662;8.448;2023-05-23T03:51:00;100629.16;;;17.87;93.10
37238;BME280;23129;49.662;8.448;2023-05-23T03:53:30;100633.69;;;17.85;93.26
37238;BME280;23129;49.662;8.448;2023-05-23T03:56:00;100630.25;;;17.83;93.05
37238;BME280;23129;49.662;8.448;2023-05-23T03:58:29;100633.00;;;17.81;92.92
37238;BME280;23129;49.662;8.448;2023-05-23T04:01:03;100627.75;;;17.79;93.01
37238;BME280;23129;49.662;8.448;2023-05-23T04:03:32;100635.84;;;17.76;92.67
37238;BME280;23129;49.662;8.448;2023-05-23T04:06:02;100637.75;;;17.74;93.09
37238;BME280;23129;49.662;8.448;2023-05-23T04:08:32;100638.78;;;17.72;92.76
37238;BME280;23129;49.662;8.448;2023-05-23T04:11:01;100637.13;;;17.69;92.75
37238;BME280;23129;49.662;8.448;2023-05-23T04:13:34;100639.97;;;17.66;93.09
37238;BME280;23129;49.662;8.448;2023-05-23T04:16:05;100646.97;;;17.67;92.82
37238;BME280;23129;49.662;8.448;2023-05-23T04:18:34;100634.66;;;17.66;92.75
37238;BME280;23129;49.662;8.448;2023-05-23T04:21:06;100648.09;;;17.63;92.98
37238;BME280;23129;49.662;8.448;2023-05-23T04:23:39;100650.06;;;17.60;92.97
37238;BME280;23129;49.662;8.448;2023-05-23T04:26:08;100653.63;;;17.58;92.84
37238;BME280;23129;49.662;8.448;2023-05-23T04:28:45;100660.72;;;17.58;92.88
37238;BME280;23129;49.662;8.448;2023-05-23T04:31:16;100658.94;;;17.58;92.60
37238;BME280;23129;49.662;8.448;2023-05-23T04:33:45;100657.22;;;17.57;92.40
37238;BME280;23129;49.662;8.448;2023-05-23T04:36:15;100658.06;;;17.58;92.44
37238;BME280;23129;49.662;8.448;2023-05-23T04:38:49;100664.22;;;17.58;92.12
37238;BME280;23129;49.662;8.448;2023-05-23T04:41:18;100666.81;;;17.60;92.09
37238;BME280;23129;49.662;8.448;2023-05-23T04:44:16;100672.13;;;17.60;91.99
37238;BME280;23129;49.662;8.448;2023-05-23T04:47:05;100682.72;;;17.60;91.87
37238;BME280;23129;49.662;8.448;2023-05-23T04:49:48;100679.28;;;17.58;91.55
37238;BME280;23129;49.662;8.448;2023-05-23T04:52:17;100690.06;;;17.55;91.69
37238;BME280;23129;49.662;8.448;2023-05-23T04:54:47;100690.06;;;17.55;91.54
37238;BME280;23129;49.662;8.448;2023-05-23T04:57:16;100684.75;;;17.55;91.21
37238;BME280;23129;49.662;8.448;2023-05-23T04:59:45;100690.91;;;17.55;91.26
37238;BME280;23129;49.662;8.448;2023-05-23T05:02:15;100693.50;;;17.57;90.80
37238;BME280;23129;49.662;8.448;2023-05-23T05:04:43;100696.94;;;17.59;90.58
37238;BME280;23129;49.662;8.448;2023-05-23T05:07:13;100696.78;;;17.62;90.60
37238;BME280;23129;49.662;8.448;2023-05-23T05:09:43;100709.56;;;17.71;90.27
37238;BME280;23129;49.662;8.448;2023-05-23T05:12:12;100712.59;;;17.81;89.77
37238;BME280;23129;49.662;8.448;2023-05-23T05:14:40;100706.88;;;17.89;89.23
37238;BME280;23129;49.662;8.448;2023-05-23T05:17:09;100711.09;;;17.93;89.27
37238;BME280;23129;49.662;8.448;2023-05-23T05:19:50;100715.88;;;18.02;88.90
37238;BME280;23129;49.662;8.448;2023-05-23T05:22:18;100713.06;;;18.05;88.87
37238;BME280;23129;49.662;8.448;2023-05-23T05:24:48;100717.25;;;18.09;88.55
37238;BME280;23129;49.662;8.448;2023-05-23T05:27:17;100722.41;;;18.12;88.31
37238;BME280;23129;49.662;8.448;2023-05-23T05:29:47;100717.97;;;18.13;88.02
37238;BME280;23129;49.662;8.448;2023-05-23T05:32:16;100723.19;;;18.14;88.19
37238;BME280;23129;49.662;8.448;2023-05-23T05:34:45;100724.97;;;18.14;88.12
37238;BME280;23129;49.662;8.448;2023-05-23T05:37:18;100724.81;;;18.17;87.79
37238;BME280;23129;49.662;8.448;2023-05-23T05:39:47;100735.34;;;18.18;87.54
37238;BME280;23129;49.662;8.448;2023-05-23T05:42:16;100739.56;;;18.22;87.46
37238;BME280;23129;49.662;8.448;2023-05-23T05:44:45;100734.94;;;18.26;87.39
37238;BME280;23129;49.662;8.448;2023-05-23T05:47:14;100739.97;;;18.31;87.07
37238;BME280;23129;49.662;8.448;2023-05-23T05:49:43;100746.56;;;18.39;87.08
37238;BME280;23129;49.662;8.448;2023-05-23T05:52:11;100747.97;;;18.46;86.87
37238;BME280;23129;49.662;8.448;2023-05-23T05:54:41;100747.63;;;18.53;86.23
37238;BME280;23129;49.662;8.448;2023-05-23T05:57:09;100757.03;;;18.58;86.32
37238;BME280;23129;49.662;8.448;2023-05-23T05:59:38;100752.47;;;18.60;86.12
37238;BME280;23129;49.662;8.448;2023-05-23T06:02:06;100753.25;;;18.62;85.71
37238;BME280;23129;49.662;8.448;2023-05-23T06:04:35;100760.44;;;18.60;85.76
37238;BME280;23129;49.662;8.448;2023-05-23T06:07:04;100757.03;;;18.58;85.55
37238;BME280;23129;49.662;8.448;2023-05-23T06:09:32;100755.13;;;18.60;85.48
37238;BME280;23129;49.662;8.448;2023-05-23T06:12:02;100754.22;;;18.61;85.29
37238;BME280;23129;49.662;8.448;2023-05-23T06:14:31;100747.34;;;18.57;84.79
37238;BME280;23129;49.662;8.448;2023-05-23T06:17:00;100752.66;;;18.57;84.65
37238;BME280;23129;49.662;8.448;2023-05-23T06:19:28;100760.28;;;18.63;84.69
37238;BME280;23129;49.662;8.448;2023-05-23T06:21:57;100766.88;;;18.72;83.96
37238;BME280;23129;49.662;8.448;2023-05-23T06:24:25;100757.72;;;18.78;83.56
37238;BME280;23129;49.662;8.448;2023-05-23T06:26:54;100762.13;;;18.79;83.30
37238;BME280;23129;49.662;8.448;2023-05-23T06:29:25;100767.16;;;18.83;82.64
37238;BME280;23129;49.662;8.448;2023-05-23T06:31:54;100770.59;;;18.85;82.68
37238;BME280;23129;49.662;8.448;2023-05-23T06:34:24;100775.63;;;18.90;82.48
37238;BME280;23129;49.662;8.448;2023-05-23T06:36:53;100778.91;;;18.95;82.24
37238;BME280;23129;49.662;8.448;2023-05-23T06:39:21;100774.19;;;19.00;81.90
37238;BME280;23129;49.662;8.448;2023-05-23T06:41:50;100775.69;;;19.04;81.44
37238;BME280;23129;49.662;8.448;2023-05-23T06:44:18;100775.69;;;19.04;81.25
37238;BME280;23129;49.662;8.448;2023-05-23T06:46:53;100788.03;;;19.05;81.12
37238;BME280;23129;49.662;8.448;2023-05-23T06:49:24;100782.72;;;19.05;81.07
37238;BME280;23129;49.662;8.448;2023-05-23T06:51:53;100793.47;;;19.04;80.91
37238;BME280;23129;49.662;8.448;2023-05-23T06:54:22;100794.59;;;19.00;80.83
37238;BME280;23129;49.662;8.448;2023-05-23T06:56:50;100802.66;;;18.98;80.46
37238;BME280;23129;49.662;8.448;2023-05-23T06:59:19;100801.63;;;19.01;80.43
37238;BME280;23129;49.662;8.448;2023-05-23T07:01:48;100794.31;;;19.04;80.10
37238;BME280;23129;49.662;8.448;2023-05-23T07:04:17;100806.47;;;19.08;79.68
37238;BME280;23129;49.662;8.448;2023-05-23T07:06:46;100807.94;;;19.14;79.58
37238;BME280;23129;49.662;8.448;2023-05-23T07:09:15;100795.91;;;19.23;78.86
37238;BME280;23129;49.662;8.448;2023-05-23T07:11:44;100805.06;;;19.33;78.63
37238;BME280;23129;49.662;8.448;2023-05-23T07:14:14;100804.44;;;19.44;77.93
37238;BME280;23129;49.662;8.448;2023-05-23T07:16:45;100806.66;;;19.51;77.50
37238;BME280;23129;49.662;8.448;2023-05-23T07:19:13;100800.97;;;19.57;77.01
37238;BME280;23129;49.662;8.448;2023-05-23T07:21:48;100805.56;;;19.70;76.52
37238;BME280;23129;49.662;8.448;2023-05-23T07:24:18;100815.06;;;19.74;76.34
37238;BME280;23129;49.662;8.448;2023-05-23T07:26:47;100814.16;;;19.75;76.23
37238;BME280;23129;49.662;8.448;2023-05-23T07:29:16;100811.38;;;19.76;75.28
37238;BME280;23129;49.662;8.448;2023-05-23T07:31:47;100811.75;;;19.70;75.52
37238;BME280;23129;49.662;8.448;2023-05-23T07:34:16;100815.38;;;19.69;75.10
37238;BME280;23129;49.662;8.448;2023-05-23T07:36:55;100822.50;;;19.69;75.24
37238;BME280;23129;49.662;8.448;2023-05-23T07:39:25;100820.78;;;19.68;75.29
37238;BME280;23129;49.662;8.448;2023-05-23T07:41:56;100817.59;;;19.61;75.04
37238;BME280;23129;49.662;8.448;2023-05-23T07:44:25;100820.38;;;19.59;75.30
37238;BME280;23129;49.662;8.448;2023-05-23T07:46:54;100813.13;;;19.61;75.07
37238;BME280;23129;49.662;8.448;2023-05-23T07:49:24;100822.72;;;19.64;74.89
37238;BME280;23129;49.662;8.448;2023-05-23T07:51:55;100818.22;;;19.66;74.41
37238;BME280;23129;49.662;8.448;2023-05-23T07:54:24;100829.59;;;19.68;74.59
37238;BME280;23129;49.662;8.448;2023-05-23T07:56:57;100822.59;;;19.67;74.19
37238;BME280;23129;49.662;8.448;2023-05-23T07:59:26;100828.75;;;19.68;74.12
37238;BME280;23129;49.662;8.448;2023-05-23T08:01:56;100826.69;;;19.73;74.01
37238;BME280;23129;49.662;8.448;2023-05-23T08:04:26;100832.00;;;19.73;73.76
37238;BME280;23129;49.662;8.448;2023-05-23T08:06:56;100822.31;;;19.72;73.60
37238;BME280;23129;49.662;8.448;2023-05-23T08:09:54;100819.47;;;19.75;73.54
37238;BME280;23129;49.662;8.448;2023-05-23T08:12:23;100820.81;;;19.82;73.40
37238;BME280;23129;49.662;8.448;2023-05-23T08:14:59;100815.41;;;19.98;73.05
37238;BME280;23129;49.662;8.448;2023-05-23T08:17:32;100814.44;;;20.13;72.52
37238;BME280;23129;49.662;8.448;2023-05-23T08:20:01;100810.16;;;20.39;71.96
37238;BME280;23129;49.662;8.448;2023-05-23T08:22:32;100815.59;;;20.93;70.75
37238;BME280;23129;49.662;8.448;2023-05-23T08:25:01;100820.44;;;21.55;69.50
37238;BME280;23129;49.662;8.448;2023-05-23T08:27:32;100823.91;;;22.21;68.17
37238;BME280;23129;49.662;8.448;2023-05-23T08:30:11;100808.84;;;22.94;66.90
37238;BME280;23129;49.662;8.448;2023-05-23T08:32:39;100803.91;;;23.49;66.14
37238;BME280;23129;49.662;8.448;2023-05-23T08:35:08;100796.22;;;24.02;64.59
37238;BME280;23129;49.662;8.448;2023-05-23T08:37:42;100798.03;;;24.35;63.74
37238;BME280;23129;49.662;8.448;2023-05-23T08:40:18;100802.44;;;24.70;62.64
37238;BME280;23129;49.662;8.448;2023-05-23T08:42:54;100803.78;;;25.19;61.32
37238;BME280;23129;49.662;8.448;2023-05-23T08:45:23;100799.47;;;25.48;60.31
37238;BME280;23129;49.662;8.448;2023-05-23T08:47:53;100806.03;;;25.77;59.71
37238;BME280;23129;49.662;8.448;2023-05-23T08:50:25;100804.72;;;25.71;59.18
37238;BME280;23129;49.662;8.448;2023-05-23T08:52:58;100819.91;;;25.19;59.70
37238;BME280;23129;49.662;8.448;2023-05-23T08:55:28;100815.09;;;24.68;60.64
37238;BME280;23129;49.662;8.448;2023-05-23T08:58:00;100824.88;;;24.12;61.16
37238;BME280;23129;49.662;8.448;2023-05-23T09:00:45;100827.63;;;23.53;61.94
37238;BME280;23129;49.662;8.448;2023-05-23T09:03:15;100829.81;;;23.24;62.70
37238;BME280;23129;49.662;8.448;2023-05-23T09:06:03;100824.75;;;23.32;62.04
37238;BME280;23129;49.662;8.448;2023-05-23T09:08:35;100835.84;;;23.39;61.25
37238;BME280;23129;49.662;8.448;2023-05-23T09:11:05;100823.31;;;23.63;60.63
37238;BME280;23129;49.662;8.448;2023-05-23T09:13:37;100826.69;;;23.65;59.93
37238;BME280;23129;49.662;8.448;2023-05-23T09:16:11;100824.59;;;24.04;59.08
37238;BME280;23129;49.662;8.448;2023-05-23T09:18:45;100824.38;;;24.64;57.77
37238;BME280;23129;49.662;8.448;2023-05-23T09:21:16;100817.91;;;25.21;55.86
37238;BME280;23129;49.662;8.448;2023-05-23T09:24:11;100809.09;;;25.72;55.29
37238;BME280;23129;49.662;8.448;2023-05-23T09:26:39;100814.84;;;25.58;55.29
37238;BME280;23129;49.662;8.448;2023-05-23T09:29:08;100814.88;;;25.25;55.36
37238;BME280;23129;49.662;8.448;2023-05-23T09:31:36;100822.44;;;24.77;56.23
37238;BME280;23129;49.662;8.448;2023-05-23T09:34:06;100826.81;;;24.22;57.39
37238;BME280;23129;49.662;8.448;2023-05-23T09:36:40;100832.03;;;23.78;58.34
37238;BME280;23129;49.662;8.448;2023-05-23T09:39:12;100838.81;;;23.47;58.92
37238;BME280;23129;49.662;8.448;2023-05-23T09:41:41;100835.53;;;23.19;59.57
37238;BME280;23129;49.662;8.448;2023-05-23T09:44:09;100834.47;;;22.98;59.79
37238;BME280;23129;49.662;8.448;2023-05-23T09:46:38;100835.66;;;22.81;59.94
37238;BME280;23129;49.662;8.448;2023-05-23T09:49:17;100838.47;;;22.79;59.71
37238;BME280;23129;49.662;8.448;2023-05-23T09:51:57;100825.34;;;22.88;59.51
37238;BME280;23129;49.662;8.448;2023-05-23T09:54:26;100830.06;;;22.97;59.25
37238;BME280;23129;49.662;8.448;2023-05-23T09:56:55;100831.28;;;23.17;58.89
37238;BME280;23129;49.662;8.448;2023-05-23T09:59:27;100835.94;;;23.26;58.20
37238;BME280;23129;49.662;8.448;2023-05-23T10:02:01;100826.50;;;23.44;58.00
37238;BME280;23129;49.662;8.448;2023-05-23T10:04:30;100826.28;;;23.83;56.97
37238;BME280;23129;49.662;8.448;2023-05-23T10:07:09;100827.44;;;24.36;56.32
37238;BME280;23129;49.662;8.448;2023-05-23T10:09:46;100833.72;;;24.92;55.03
37238;BME280;23129;49.662;8.448;2023-05-23T10:12:41;100826.28;;;25.39;53.92
37238;BME280;23129;49.662;8.448;2023-05-23T10:15:14;100829.63;;;25.31;53.82
37238;BME280;23129;49.662;8.448;2023-05-23T10:17:56;100828.47;;;25.01;54.12
37238;BME280;23129;49.662;8.448;2023-05-23T10:20:30;100833.19;;;24.66;55.21
37238;BME280;23129;49.662;8.448;2023-05-23T10:22:59;100822.91;;;24.37;55.49
37238;BME280;23129;49.662;8.448;2023-05-23T10:25:29;100839.97;;;24.02;55.86
37238;BME280;23129;49.662;8.448;2023-05-23T10:27:58;100845.13;;;23.70;56.33
37238;BME280;23129;49.662;8.448;2023-05-23T10:30:30;100853.19;;;23.46;56.65
37238;BME280;23129;49.662;8.448;2023-05-23T10:33:00;100843.91;;;23.15;56.83
37238;BME280;23129;49.662;8.448;2023-05-23T10:35:43;100850.53;;;22.98;57.04
37238;BME280;23129;49.662;8.448;2023-05-23T10:38:32;100845.28;;;22.84;56.73
37238;BME280;23129;49.662;8.448;2023-05-23T10:41:09;100847.13;;;22.70;57.39
37238;BME280;23129;49.662;8.448;2023-05-23T10:43:46;100843.19;;;22.63;57.05
37238;BME280;23129;49.662;8.448;2023-05-23T10:46:18;100849.53;;;22.62;57.21
37238;BME280;23129;49.662;8.448;2023-05-23T10:48:47;100851.97;;;22.65;56.96
37238;BME280;23129;49.662;8.448;2023-05-23T10:51:21;100842.66;;;22.71;56.95
37238;BME280;23129;49.662;8.448;2023-05-23T10:53:53;100846.97;;;22.85;56.98
37238;BME280;23129;49.662;8.448;2023-05-23T10:56:23;100847.94;;;23.20;56.24
37238;BME280;23129;49.662;8.448;2023-05-23T10:58:53;100832.63;;;23.82;54.91
37238;BME280;23129;49.662;8.448;2023-05-23T11:01:23;100832.09;;;24.46;53.39
37238;BME280;23129;49.662;8.448;2023-05-23T11:03:52;100834.88;;;25.21;52.48
37238;BME280;23129;49.662;8.448;2023-05-23T11:06:31;100833.84;;;25.87;51.22
37238;BME280;23129;49.662;8.448;2023-05-23T11:09:09;100829.53;;;25.95;51.38
37238;BME280;23129;49.662;8.448;2023-05-23T11:12:00;100835.16;;;25.92;51.61
37238;BME280;23129;49.662;8.448;2023-05-23T11:14:51;100835.97;;;25.83;51.25
37238;BME280;23129;49.662;8.448;2023-05-23T11:17:32;100845.28;;;25.47;51.83
37238;BME280;23129;49.662;8.448;2023-05-23T11:20:03;100834.28;;;25.18;51.92
37238;BME280;23129;49.662;8.448;2023-05-23T11:22:35;100842.75;;;24.91;52.17
37238;BME280;23129;49.662;8.448;2023-05-23T11:25:06;100842.69;;;24.58;52.97
37238;BME280;23129;49.662;8.448;2023-05-23T11:27:39;100839.25;;;24.34;53.56
37238;BME280;23129;49.662;8.448;2023-05-23T11:30:10;100837.78;;;24.07;53.63
37238;BME280;23129;49.662;8.448;2023-05-23T11:32:41;100838.69;;;23.84;54.03
37238;BME280;23129;49.662;8.448;2023-05-23T11:35:10;100850.50;;;23.70;54.07
37238;BME280;23129;49.662;8.448;2023-05-23T11:37:39;100843.97;;;23.61;53.96
37238;BME280;23129;49.662;8.448;2023-05-23T11:40:28;100849.06;;;23.53;54.02
37238;BME280;23129;49.662;8.448;2023-05-23T11:42:59;100858.47;;;23.59;53.81
37238;BME280;23129;49.662;8.448;2023-05-23T11:45:29;100852.41;;;23.68;53.85
37238;BME280;23129;49.662;8.448;2023-05-23T11:48:03;100848.47;;;23.85;53.67
37238;BME280;23129;49.662;8.448;2023-05-23T11:50:32;100854.34;;;24.12;53.16
37238;BME280;23129;49.662;8.448;2023-05-23T11:53:00;100854.38;;;24.46;52.65
37238;BME280;23129;49.662;8.448;2023-05-23T11:55:29;100847.53;;;24.76;52.15
37238;BME280;23129;49.662;8.448;2023-05-23T11:57:59;100849.88;;;25.24;50.96
37238;BME280;23129;49.662;8.448;2023-05-23T12:00:28;100848.41;;;25.84;50.10
37238;BME280;23129;49.662;8.448;2023-05-23T12:02:57;100845.22;;;26.21;49.28
37238;BME280;23129;49.662;8.448;2023-05-23T12:05:34;100842.19;;;26.76;48.75
37238;BME280;23129;49.662;8.448;2023-05-23T12:08:02;100843.88;;;27.17;47.88
37238;BME280;23129;49.662;8.448;2023-05-23T12:10:31;100842.16;;;27.36;47.42
37238;BME280;23129;49.662;8.448;2023-05-23T12:13:01;100835.06;;;27.73;46.96
37238;BME280;23129;49.662;8.448;2023-05-23T12:15:31;100843.56;;;27.79;46.51
37238;BME280;23129;49.662;8.448;2023-05-23T12:18:00;100833.34;;;27.72;46.59
37238;BME280;23129;49.662;8.448;2023-05-23T12:20:29;100837.03;;;27.71;46.07
37238;BME280;23129;49.662;8.448;2023-05-23T12:23:03;100842.00;;;27.86;46.08
37238;BME280;23129;49.662;8.448;2023-05-23T12:25:39;100839.81;;;28.09;45.69
37238;BME280;23129;49.662;8.448;2023-05-23T12:28:10;100840.47;;;28.30;44.96
37238;BME280;23129;49.662;8.448;2023-05-23T12:30:43;100845.81;;;28.40;44.72
37238;BME280;23129;49.662;8.448;2023-05-23T12:33:12;100850.38;;;28.39;44.56
37238;BME280;23129;49.662;8.448;2023-05-23T12:35:42;100847.84;;;28.65;44.41
37238;BME280;23129;49.662;8.448;2023-05-23T12:38:14;100847.44;;;28.88;43.31
37238;BME280;23129;49.662;8.448;2023-05-23T12:40:44;100843.13;;;28.95;43.11
37238;BME280;23129;49.662;8.448;2023-05-23T12:43:14;100837.69;;;29.05;42.93
37238;BME280;23129;49.662;8.448;2023-05-23T12:45:44;100844.25;;;29.38;42.20
37238;BME280;23129;49.662;8.448;2023-05-23T12:48:12;100848.41;;;29.50;42.15
37238;BME280;23129;49.662;8.448;2023-05-23T12:50:40;100835.88;;;29.49;42.04
37238;BME280;23129;49.662;8.448;2023-05-23T12:53:09;100842.81;;;29.26;42.31
37238;BME280;23129;49.662;8.448;2023-05-23T12:55:37;100846.06;;;28.84;42.54
37238;BME280;23129;49.662;8.448;2023-05-23T12:58:07;100848.13;;;28.62;43.11
37238;BME280;23129;49.662;8.448;2023-05-23T13:00:36;100846.00;;;28.29;43.30
37238;BME280;23129;49.662;8.448;2023-05-23T13:03:05;100837.41;;;28.15;43.65
37238;BME280;23129;49.662;8.448;2023-05-23T13:05:34;100839.50;;;28.21;43.33
37238;BME280;23129;49.662;8.448;2023-05-23T13:08:02;100844.81;;;28.04;43.18
37238;BME280;23129;49.662;8.448;2023-05-23T13:10:31;100836.47;;;27.48;44.03
37238;BME280;23129;49.662;8.448;2023-05-23T13:13:00;100833.38;;;27.24;44.42